sensor_id;sensor_type;location;lat;lon;timestamp;temperature;humidity
34644;DHT22;26931;43.498;-1.506;2022-12-15T00:01:59;14.40;99.90
34644;DHT22;26931;43.498;-1.506;2022-12-15T00:04:43;14.30;99.90
34644;DHT22;26931;43.498;-1.506;2022-12-15T00:07:27;14.40;99.90
34644;DHT22;26931;43.498;-1.506;2022-12-15T00:10:11;14.30;99.90
34644;DHT22;26931;43.498;-1.506;2022-12-15T00:12:55;14.30;99.90
34644;DHT22;26931;43.498;-1.506;2022-12-15T00:15:40;14.30;99.90
34644;DHT22;26931;43.498;-1.506;2022-12-15T00:18:24;14.30;99.90
34644;DHT22;26931;43.498;-1.506;2022-12-15T00:21:08;14.30;99.90
34644;DHT22;26931;43.498;-1.506;2022-12-15T00:23:52;14.10;99.90
34644;DHT22;26931;43.498;-1.506;2022-12-15T00:26:36;14.20;99.90
34644;DHT22;26931;43.498;-1.506;2022-12-15T00:29:20;14.10;99.90
34644;DHT22;26931;43.498;-1.506;2022-12-15T00:32:05;14.10;99.90
34644;DHT22;26931;43.498;-1.506;2022-12-15T00:34:49;14.20;99.90
34644;DHT22;26931;43.498;-1.506;2022-12-15T00:37:33;14.30;99.90
34644;DHT22;26931;43.498;-1.506;2022-12-15T00:40:17;14.30;99.90
34644;DHT22;26931;43.498;-1.506;2022-12-15T00:42:43;14.20;99.90
34644;DHT22;26931;43.498;-1.506;2022-12-15T00:45:08;14.20;99.90
34644;DHT22;26931;43.498;-1.506;2022-12-15T00:47:34;14.20;99.90
34644;DHT22;26931;43.498;-1.506;2022-12-15T00:50:00;14.20;99.90
34644;DHT22;26931;43.498;-1.506;2022-12-15T00:52:45;14.00;99.90
34644;DHT22;26931;43.498;-1.506;2022-12-15T00:55:29;14.10;99.90
34644;DHT22;26931;43.498;-1.506;2022-12-15T00:58:13;14.20;99.90
34644;DHT22;26931;43.498;-1.506;2022-12-15T01:00:57;14.10;99.90
34644;DHT22;26931;43.498;-1.506;2022-12-15T01:03:41;14.20;99.90
34644;DHT22;26931;43.498;-1.506;2022-12-15T01:06:25;14.20;99.90
34644;DHT22;26931;43.498;-1.506;2022-12-15T01:09:10;14.10;99.90
34644;DHT22;26931;43.498;-1.506;2022-12-15T01:11:55;14.10;99.90
34644;DHT22;26931;43.498;-1.506;2022-12-15T01:14:39;14.10;99.90
34644;DHT22;26931;43.498;-1.506;2022-12-15T01:17:23;14.10;99.90
34644;DHT22;26931;43.498;-1.506;2022-12-15T01:20:08;14.10;99.90
34644;DHT22;26931;43.498;-1.506;2022-12-15T01:22:49;14.00;99.90
34644;DHT22;26931;43.498;-1.506;2022-12-15T01:25:16;14.00;99.90
34644;DHT22;26931;43.498;-1.506;2022-12-15T01:27:42;13.90;99.90
34644;DHT22;26931;43.498;-1.506;2022-12-15T01:30:09;14.00;99.90
34644;DHT22;26931;43.498;-1.506;2022-12-15T01:32:35;14.00;99.90
34644;DHT22;26931;43.498;-1.506;2022-12-15T01:35:01;13.90;99.90
34644;DHT22;26931;43.498;-1.506;2022-12-15T01:37:27;13.90;99.90
34644;DHT22;26931;43.498;-1.506;2022-12-15T01:39:53;13.90;99.90
34644;DHT22;26931;43.498;-1.506;2022-12-15T01:42:37;13.90;99.90
34644;DHT22;26931;43.498;-1.506;2022-12-15T01:47:47;13.80;99.90
34644;DHT22;26931;43.498;-1.506;2022-12-15T01:50:13;13.80;99.90
34644;DHT22;26931;43.498;-1.506;2022-12-15T01:52:39;13.90;99.90
34644;DHT22;26931;43.498;-1.506;2022-12-15T01:55:05;13.80;99.90
34644;DHT22;26931;43.498;-1.506;2022-12-15T01:57:31;13.70;99.90
34644;DHT22;26931;43.498;-1.506;2022-12-15T02:00:00;13.90;99.90
34644;DHT22;26931;43.498;-1.506;2022-12-15T02:02:27;13.80;99.90
34644;DHT22;26931;43.498;-1.506;2022-12-15T02:04:54;13.80;99.90
34644;DHT22;26931;43.498;-1.506;2022-12-15T02:07:21;13.80;99.90
34644;DHT22;26931;43.498;-1.506;2022-12-15T02:09:47;13.70;99.90
34644;DHT22;26931;43.498;-1.506;2022-12-15T02:24:51;13.70;99.90
34644;DHT22;26931;43.498;-1.506;2022-12-15T02:30:19;13.70;99.90
34644;DHT22;26931;43.498;-1.506;2022-12-15T02:35:14;13.60;99.90
34644;DHT22;26931;43.498;-1.506;2022-12-15T02:37:41;13.50;99.90
34644;DHT22;26931;43.498;-1.506;2022-12-15T02:40:08;13.60;99.90
34644;DHT22;26931;43.498;-1.506;2022-12-15T02:42:34;13.70;99.90
34644;DHT22;26931;43.498;-1.506;2022-12-15T02:45:05;13.80;99.90
34644;DHT22;26931;43.498;-1.506;2022-12-15T03:00:54;13.70;99.90
34644;DHT22;26931;43.498;-1.506;2022-12-15T03:03:22;13.80;99.90
34644;DHT22;26931;43.498;-1.506;2022-12-15T03:05:48;13.70;99.90
34644;DHT22;26931;43.498;-1.506;2022-12-15T03:08:17;13.70;99.90
34644;DHT22;26931;43.498;-1.506;2022-12-15T03:10:43;13.80;99.90
34644;DHT22;26931;43.498;-1.506;2022-12-15T03:13:09;13.70;99.90
34644;DHT22;26931;43.498;-1.506;2022-12-15T03:15:34;13.80;99.90
34644;DHT22;26931;43.498;-1.506;2022-12-15T03:18:00;13.70;99.90
34644;DHT22;26931;43.498;-1.506;2022-12-15T03:20:26;13.80;99.90
34644;DHT22;26931;43.498;-1.506;2022-12-15T03:22:52;13.80;99.90
34644;DHT22;26931;43.498;-1.506;2022-12-15T03:25:18;13.80;99.90
34644;DHT22;26931;43.498;-1.506;2022-12-15T03:27:44;13.80;99.90
34644;DHT22;26931;43.498;-1.506;2022-12-15T03:30:10;13.80;99.90
34644;DHT22;26931;43.498;-1.506;2022-12-15T03:32:36;13.80;99.90
34644;DHT22;26931;43.498;-1.506;2022-12-15T03:35:02;13.80;99.90
34644;DHT22;26931;43.498;-1.506;2022-12-15T03:37:28;13.90;99.90
34644;DHT22;26931;43.498;-1.506;2022-12-15T03:39:54;13.80;99.90
34644;DHT22;26931;43.498;-1.506;2022-12-15T03:42:20;13.80;99.90
34644;DHT22;26931;43.498;-1.506;2022-12-15T03:45:06;13.60;99.90
34644;DHT22;26931;43.498;-1.506;2022-12-15T03:47:31;13.80;99.90
34644;DHT22;26931;43.498;-1.506;2022-12-15T03:49:57;13.80;99.90
34644;DHT22;26931;43.498;-1.506;2022-12-15T03:52:23;13.80;99.90
34644;DHT22;26931;43.498;-1.506;2022-12-15T03:54:48;13.90;99.90
34644;DHT22;26931;43.498;-1.506;2022-12-15T03:57:14;13.90;99.90
34644;DHT22;26931;43.498;-1.506;2022-12-15T03:59:40;14.10;99.90
34644;DHT22;26931;43.498;-1.506;2022-12-15T04:02:07;13.90;99.90
34644;DHT22;26931;43.498;-1.506;2022-12-15T04:04:33;13.80;99.90
34644;DHT22;26931;43.498;-1.506;2022-12-15T04:06:59;13.90;99.90
34644;DHT22;26931;43.498;-1.506;2022-12-15T04:09:25;14.00;99.90
34644;DHT22;26931;43.498;-1.506;2022-12-15T04:11:50;14.00;99.90
34644;DHT22;26931;43.498;-1.506;2022-12-15T04:14:16;14.10;99.90
34644;DHT22;26931;43.498;-1.506;2022-12-15T04:16:42;13.90;99.90
34644;DHT22;26931;43.498;-1.506;2022-12-15T04:19:08;13.90;99.90
34644;DHT22;26931;43.498;-1.506;2022-12-15T04:21:52;13.90;99.90
34644;DHT22;26931;43.498;-1.506;2022-12-15T04:24:17;13.90;99.90
34644;DHT22;26931;43.498;-1.506;2022-12-15T04:27:01;13.90;99.90
34644;DHT22;26931;43.498;-1.506;2022-12-15T04:29:46;13.90;99.90
34644;DHT22;26931;43.498;-1.506;2022-12-15T04:32:30;13.90;99.90
34644;DHT22;26931;43.498;-1.506;2022-12-15T04:35:14;13.90;99.90
34644;DHT22;26931;43.498;-1.506;2022-12-15T04:37:58;13.80;99.90
34644;DHT22;26931;43.498;-1.506;2022-12-15T04:40:43;13.80;99.90
34644;DHT22;26931;43.498;-1.506;2022-12-15T04:43:28;13.70;99.90
34644;DHT22;26931;43.498;-1.506;2022-12-15T04:46:12;13.80;99.90
34644;DHT22;26931;43.498;-1.506;2022-12-15T04:48:56;13.80;99.90
34644;DHT22;26931;43.498;-1.506;2022-12-15T04:51:40;13.70;99.90
34644;DHT22;26931;43.498;-1.506;2022-12-15T04:54:24;13.80;99.90
34644;DHT22;26931;43.498;-1.506;2022-12-15T04:57:08;13.70;99.90
34644;DHT22;26931;43.498;-1.506;2022-12-15T04:59:53;13.70;99.90
34644;DHT22;26931;43.498;-1.506;2022-12-15T05:02:37;13.80;99.90
34644;DHT22;26931;43.498;-1.506;2022-12-15T05:05:21;13.70;99.90
34644;DHT22;26931;43.498;-1.506;2022-12-15T05:08:05;13.60;99.90
34644;DHT22;26931;43.498;-1.506;2022-12-15T05:10:50;13.70;99.90
34644;DHT22;26931;43.498;-1.506;2022-12-15T05:13:34;13.70;99.90
34644;DHT22;26931;43.498;-1.506;2022-12-15T05:16:18;13.70;99.90
34644;DHT22;26931;43.498;-1.506;2022-12-15T05:19:02;13.60;99.90
34644;DHT22;26931;43.498;-1.506;2022-12-15T05:21:46;13.60;99.90
34644;DHT22;26931;43.498;-1.506;2022-12-15T05:24:31;13.60;99.90
34644;DHT22;26931;43.498;-1.506;2022-12-15T05:27:15;13.80;99.90
34644;DHT22;26931;43.498;-1.506;2022-12-15T05:29:59;13.70;99.90
34644;DHT22;26931;43.498;-1.506;2022-12-15T05:32:43;13.60;99.90
34644;DHT22;26931;43.498;-1.506;2022-12-15T05:35:09;13.60;99.90
34644;DHT22;26931;43.498;-1.506;2022-12-15T05:37:35;13.70;99.90
34644;DHT22;26931;43.498;-1.506;2022-12-15T05:40:01;13.60;99.90
34644;DHT22;26931;43.498;-1.506;2022-12-15T05:42:27;13.60;99.90
34644;DHT22;26931;43.498;-1.506;2022-12-15T05:44:52;13.80;99.90
34644;DHT22;26931;43.498;-1.506;2022-12-15T05:47:18;13.60;99.90
34644;DHT22;26931;43.498;-1.506;2022-12-15T05:49:44;13.60;99.90
34644;DHT22;26931;43.498;-1.506;2022-12-15T05:52:10;13.60;99.90
34644;DHT22;26931;43.498;-1.506;2022-12-15T05:54:35;13.60;99.90
34644;DHT22;26931;43.498;-1.506;2022-12-15T05:57:01;13.60;99.90
34644;DHT22;26931;43.498;-1.506;2022-12-15T05:59:27;13.60;99.90
34644;DHT22;26931;43.498;-1.506;2022-12-15T06:01:53;13.60;99.90
34644;DHT22;26931;43.498;-1.506;2022-12-15T06:04:19;13.60;99.90
34644;DHT22;26931;43.498;-1.506;2022-12-15T06:06:44;13.60;99.90
34644;DHT22;26931;43.498;-1.506;2022-12-15T06:09:10;13.50;99.90
34644;DHT22;26931;43.498;-1.506;2022-12-15T06:11:36;13.60;99.90
34644;DHT22;26931;43.498;-1.506;2022-12-15T06:14:02;13.60;99.90
34644;DHT22;26931;43.498;-1.506;2022-12-15T06:16:28;13.60;99.90
34644;DHT22;26931;43.498;-1.506;2022-12-15T06:18:55;13.60;99.90
34644;DHT22;26931;43.498;-1.506;2022-12-15T06:21:23;13.60;99.90
34644;DHT22;26931;43.498;-1.506;2022-12-15T06:23:49;13.60;99.90
34644;DHT22;26931;43.498;-1.506;2022-12-15T06:26:17;13.60;99.90
34644;DHT22;26931;43.498;-1.506;2022-12-15T06:28:43;13.60;99.90
34644;DHT22;26931;43.498;-1.506;2022-12-15T06:31:09;13.60;99.90
34644;DHT22;26931;43.498;-1.506;2022-12-15T06:33:35;13.60;99.90
34644;DHT22;26931;43.498;-1.506;2022-12-15T06:36:02;13.60;99.90
34644;DHT22;26931;43.498;-1.506;2022-12-15T06:38:29;13.60;99.90
34644;DHT22;26931;43.498;-1.506;2022-12-15T06:40:55;13.60;99.90
34644;DHT22;26931;43.498;-1.506;2022-12-15T06:43:21;13.50;99.90
34644;DHT22;26931;43.498;-1.506;2022-12-15T06:45:47;13.60;99.90
34644;DHT22;26931;43.498;-1.506;2022-12-15T06:48:14;13.50;99.90
34644;DHT22;26931;43.498;-1.506;2022-12-15T06:50:40;13.50;99.90
34644;DHT22;26931;43.498;-1.506;2022-12-15T06:53:06;13.50;99.90
34644;DHT22;26931;43.498;-1.506;2022-12-15T06:55:32;13.50;99.90
34644;DHT22;26931;43.498;-1.506;2022-12-15T06:57:58;13.40;99.90
34644;DHT22;26931;43.498;-1.506;2022-12-15T07:00:24;13.50;99.90
34644;DHT22;26931;43.498;-1.506;2022-12-15T07:02:52;13.50;99.90
34644;DHT22;26931;43.498;-1.506;2022-12-15T07:05:17;13.50;99.90
34644;DHT22;26931;43.498;-1.506;2022-12-15T07:07:43;13.50;99.90
34644;DHT22;26931;43.498;-1.506;2022-12-15T07:10:09;13.40;99.90
34644;DHT22;26931;43.498;-1.506;2022-12-15T07:12:35;13.40;99.90
34644;DHT22;26931;43.498;-1.506;2022-12-15T07:15:01;13.40;99.90
34644;DHT22;26931;43.498;-1.506;2022-12-15T07:17:27;13.40;99.90
34644;DHT22;26931;43.498;-1.506;2022-12-15T07:19:54;13.30;99.90
34644;DHT22;26931;43.498;-1.506;2022-12-15T07:22:19;13.30;99.90
34644;DHT22;26931;43.498;-1.506;2022-12-15T07:24:46;13.30;99.90
34644;DHT22;26931;43.498;-1.506;2022-12-15T07:27:12;13.30;99.90
34644;DHT22;26931;43.498;-1.506;2022-12-15T07:29:37;13.10;99.90
34644;DHT22;26931;43.498;-1.506;2022-12-15T07:32:03;13.30;99.90
34644;DHT22;26931;43.498;-1.506;2022-12-15T07:34:29;13.30;99.90
34644;DHT22;26931;43.498;-1.506;2022-12-15T07:36:55;13.20;99.90
34644;DHT22;26931;43.498;-1.506;2022-12-15T07:39:20;13.20;99.90
34644;DHT22;26931;43.498;-1.506;2022-12-15T07:41:46;13.20;99.90
34644;DHT22;26931;43.498;-1.506;2022-12-15T07:44:12;13.00;99.90
34644;DHT22;26931;43.498;-1.506;2022-12-15T07:46:39;13.00;99.90
34644;DHT22;26931;43.498;-1.506;2022-12-15T07:49:04;13.10;99.90
34644;DHT22;26931;43.498;-1.506;2022-12-15T07:51:30;13.10;99.90
34644;DHT22;26931;43.498;-1.506;2022-12-15T07:53:56;13.10;99.90
34644;DHT22;26931;43.498;-1.506;2022-12-15T07:56:22;13.30;99.90
34644;DHT22;26931;43.498;-1.506;2022-12-15T07:58:48;13.10;99.90
34644;DHT22;26931;43.498;-1.506;2022-12-15T08:01:14;13.10;99.90
34644;DHT22;26931;43.498;-1.506;2022-12-15T08:03:40;13.10;99.90
34644;DHT22;26931;43.498;-1.506;2022-12-15T08:06:06;13.10;99.90
34644;DHT22;26931;43.498;-1.506;2022-12-15T08:08:32;13.00;99.90
34644;DHT22;26931;43.498;-1.506;2022-12-15T08:11:00;13.10;99.90
34644;DHT22;26931;43.498;-1.506;2022-12-15T08:13:28;13.10;99.90
34644;DHT22;26931;43.498;-1.506;2022-12-15T08:15:53;13.10;99.90
34644;DHT22;26931;43.498;-1.506;2022-12-15T08:18:19;13.10;99.90
34644;DHT22;26931;43.498;-1.506;2022-12-15T08:20:45;13.10;99.90
34644;DHT22;26931;43.498;-1.506;2022-12-15T08:23:11;13.10;99.90
34644;DHT22;26931;43.498;-1.506;2022-12-15T08:25:36;13.10;99.90
34644;DHT22;26931;43.498;-1.506;2022-12-15T08:28:02;13.20;99.90
34644;DHT22;26931;43.498;-1.506;2022-12-15T08:30:29;13.20;99.90
34644;DHT22;26931;43.498;-1.506;2022-12-15T08:32:55;13.10;99.90
34644;DHT22;26931;43.498;-1.506;2022-12-15T08:35:21;13.10;99.90
34644;DHT22;26931;43.498;-1.506;2022-12-15T08:37:47;13.20;99.90
34644;DHT22;26931;43.498;-1.506;2022-12-15T08:40:13;13.20;99.90
34644;DHT22;26931;43.498;-1.506;2022-12-15T08:42:38;13.20;99.90
34644;DHT22;26931;43.498;-1.506;2022-12-15T08:45:05;13.10;99.90
34644;DHT22;26931;43.498;-1.506;2022-12-15T08:47:31;13.20;99.90
34644;DHT22;26931;43.498;-1.506;2022-12-15T08:49:56;13.20;99.90
34644;DHT22;26931;43.498;-1.506;2022-12-15T08:52:22;13.20;99.90
34644;DHT22;26931;43.498;-1.506;2022-12-15T08:54:48;13.30;99.90
34644;DHT22;26931;43.498;-1.506;2022-12-15T08:57:14;13.50;99.90
34644;DHT22;26931;43.498;-1.506;2022-12-15T08:59:40;13.20;99.90
34644;DHT22;26931;43.498;-1.506;2022-12-15T09:02:06;13.30;99.90
34644;DHT22;26931;43.498;-1.506;2022-12-15T09:04:32;13.30;99.90
34644;DHT22;26931;43.498;-1.506;2022-12-15T09:06:58;13.30;99.90
34644;DHT22;26931;43.498;-1.506;2022-12-15T09:09:23;13.50;99.90
34644;DHT22;26931;43.498;-1.506;2022-12-15T09:11:49;13.30;99.90
34644;DHT22;26931;43.498;-1.506;2022-12-15T09:14:15;13.40;99.90
34644;DHT22;26931;43.498;-1.506;2022-12-15T09:16:41;13.40;99.90
34644;DHT22;26931;43.498;-1.506;2022-12-15T09:19:07;13.40;99.90
34644;DHT22;26931;43.498;-1.506;2022-12-15T09:21:34;13.40;99.90
34644;DHT22;26931;43.498;-1.506;2022-12-15T09:24:00;13.40;99.90
34644;DHT22;26931;43.498;-1.506;2022-12-15T09:26:28;13.40;99.90
34644;DHT22;26931;43.498;-1.506;2022-12-15T09:28:54;13.50;99.90
34644;DHT22;26931;43.498;-1.506;2022-12-15T09:31:22;13.40;99.90
34644;DHT22;26931;43.498;-1.506;2022-12-15T09:33:49;13.50;99.90
34644;DHT22;26931;43.498;-1.506;2022-12-15T09:36:16;13.50;99.90
34644;DHT22;26931;43.498;-1.506;2022-12-15T09:38:42;13.60;99.90
34644;DHT22;26931;43.498;-1.506;2022-12-15T09:41:15;13.60;99.90
34644;DHT22;26931;43.498;-1.506;2022-12-15T09:43:58;13.60;99.90
34644;DHT22;26931;43.498;-1.506;2022-12-15T09:48:50;13.70;99.90
34644;DHT22;26931;43.498;-1.506;2022-12-15T09:51:18;13.60;99.90
34644;DHT22;26931;43.498;-1.506;2022-12-15T09:53:44;13.80;99.90
34644;DHT22;26931;43.498;-1.506;2022-12-15T09:56:12;13.80;99.90
34644;DHT22;26931;43.498;-1.506;2022-12-15T09:58:42;13.80;99.90
34644;DHT22;26931;43.498;-1.506;2022-12-15T10:01:27;13.80;99.90
34644;DHT22;26931;43.498;-1.506;2022-12-15T10:06:20;13.90;99.90
34644;DHT22;26931;43.498;-1.506;2022-12-15T10:08:55;13.90;99.90
34644;DHT22;26931;43.498;-1.506;2022-12-15T10:11:45;13.80;99.90
34644;DHT22;26931;43.498;-1.506;2022-12-15T10:14:16;14.00;99.90
34644;DHT22;26931;43.498;-1.506;2022-12-15T10:19:13;14.10;99.90
34644;DHT22;26931;43.498;-1.506;2022-12-15T10:21:42;14.10;99.90
34644;DHT22;26931;43.498;-1.506;2022-12-15T10:24:13;14.10;99.90
34644;DHT22;26931;43.498;-1.506;2022-12-15T10:26:40;14.40;99.90
34644;DHT22;26931;43.498;-1.506;2022-12-15T10:29:41;14.30;99.90
34644;DHT22;26931;43.498;-1.506;2022-12-15T10:34:26;14.40;99.90
34644;DHT22;26931;43.498;-1.506;2022-12-15T10:36:52;14.40;99.90
34644;DHT22;26931;43.498;-1.506;2022-12-15T10:39:18;14.50;99.90
34644;DHT22;26931;43.498;-1.506;2022-12-15T10:41:45;14.50;99.90
34644;DHT22;26931;43.498;-1.506;2022-12-15T10:44:35;14.60;99.90
34644;DHT22;26931;43.498;-1.506;2022-12-15T10:46:56;14.60;99.90
34644;DHT22;26931;43.498;-1.506;2022-12-15T10:49:23;14.70;99.90
34644;DHT22;26931;43.498;-1.506;2022-12-15T10:51:52;14.80;99.90
34644;DHT22;26931;43.498;-1.506;2022-12-15T10:54:18;14.80;99.90
34644;DHT22;26931;43.498;-1.506;2022-12-15T11:12:44;15.40;99.90
34644;DHT22;26931;43.498;-1.506;2022-12-15T11:17:47;15.40;99.90
34644;DHT22;26931;43.498;-1.506;2022-12-15T11:20:19;15.50;99.90
34644;DHT22;26931;43.498;-1.506;2022-12-15T11:22:54;15.50;99.90
34644;DHT22;26931;43.498;-1.506;2022-12-15T11:27:55;15.80;99.90
34644;DHT22;26931;43.498;-1.506;2022-12-15T11:30:32;15.60;99.90
34644;DHT22;26931;43.498;-1.506;2022-12-15T11:32:58;15.70;99.90
34644;DHT22;26931;43.498;-1.506;2022-12-15T11:38:02;15.70;99.90
34644;DHT22;26931;43.498;-1.506;2022-12-15T11:40:42;15.70;99.90
34644;DHT22;26931;43.498;-1.506;2022-12-15T11:43:15;15.70;99.90
34644;DHT22;26931;43.498;-1.506;2022-12-15T11:45:49;15.70;99.90
34644;DHT22;26931;43.498;-1.506;2022-12-15T11:48:17;15.70;99.90
34644;DHT22;26931;43.498;-1.506;2022-12-15T11:55:58;15.70;99.90
34644;DHT22;26931;43.498;-1.506;2022-12-15T12:01:11;15.80;99.90
34644;DHT22;26931;43.498;-1.506;2022-12-15T12:06:32;15.80;99.90
34644;DHT22;26931;43.498;-1.506;2022-12-15T12:11:30;15.80;99.90
34644;DHT22;26931;43.498;-1.506;2022-12-15T12:14:03;15.80;99.90
34644;DHT22;26931;43.498;-1.506;2022-12-15T12:16:50;15.90;99.90
34644;DHT22;26931;43.498;-1.506;2022-12-15T12:19:19;15.90;99.90
34644;DHT22;26931;43.498;-1.506;2022-12-15T12:21:49;15.90;99.90
34644;DHT22;26931;43.498;-1.506;2022-12-15T12:24:28;15.90;99.90
34644;DHT22;26931;43.498;-1.506;2022-12-15T12:26:56;16.10;99.90
34644;DHT22;26931;43.498;-1.506;2022-12-15T12:37:26;16.00;99.90
34644;DHT22;26931;43.498;-1.506;2022-12-15T12:39:56;15.90;99.90
34644;DHT22;26931;43.498;-1.506;2022-12-15T12:42:24;15.90;99.90
34644;DHT22;26931;43.498;-1.506;2022-12-15T12:44:53;15.90;99.90
34644;DHT22;26931;43.498;-1.506;2022-12-15T12:49:46;15.90;99.90
34644;DHT22;26931;43.498;-1.506;2022-12-15T12:52:15;15.90;99.90
34644;DHT22;26931;43.498;-1.506;2022-12-15T12:54:45;15.90;99.90
34644;DHT22;26931;43.498;-1.506;2022-12-15T12:59:49;16.00;99.90
34644;DHT22;26931;43.498;-1.506;2022-12-15T13:04:49;16.00;99.90
34644;DHT22;26931;43.498;-1.506;2022-12-15T13:07:29;16.00;99.90
34644;DHT22;26931;43.498;-1.506;2022-12-15T13:12:35;16.00;99.90
34644;DHT22;26931;43.498;-1.506;2022-12-15T13:15:11;16.00;99.90
34644;DHT22;26931;43.498;-1.506;2022-12-15T13:17:41;16.00;99.90
34644;DHT22;26931;43.498;-1.506;2022-12-15T13:20:21;16.00;99.90
34644;DHT22;26931;43.498;-1.506;2022-12-15T13:22:47;16.10;99.80
34644;DHT22;26931;43.498;-1.506;2022-12-15T13:25:32;16.00;99.60
34644;DHT22;26931;43.498;-1.506;2022-12-15T13:27:58;16.10;99.60
34644;DHT22;26931;43.498;-1.506;2022-12-15T13:30:25;16.10;99.50
34644;DHT22;26931;43.498;-1.506;2022-12-15T13:33:12;16.00;99.40
34644;DHT22;26931;43.498;-1.506;2022-12-15T13:35:39;16.10;99.50
34644;DHT22;26931;43.498;-1.506;2022-12-15T13:38:07;16.10;99.40
34644;DHT22;26931;43.498;-1.506;2022-12-15T13:45:52;16.00;99.20
34644;DHT22;26931;43.498;-1.506;2022-12-15T13:51:14;16.10;99.10
34644;DHT22;26931;43.498;-1.506;2022-12-15T13:53:47;16.00;99.10
34644;DHT22;26931;43.498;-1.506;2022-12-15T13:58:45;16.10;99.10
34644;DHT22;26931;43.498;-1.506;2022-12-15T14:01:23;16.10;99.20
34644;DHT22;26931;43.498;-1.506;2022-12-15T14:03:56;16.20;99.30
34644;DHT22;26931;43.498;-1.506;2022-12-15T14:06:22;16.10;99.30
34644;DHT22;26931;43.498;-1.506;2022-12-15T14:08:48;16.10;99.40
34644;DHT22;26931;43.498;-1.506;2022-12-15T14:11:19;16.10;99.50
34644;DHT22;26931;43.498;-1.506;2022-12-15T14:13:47;16.00;99.50
34644;DHT22;26931;43.498;-1.506;2022-12-15T14:18:40;16.10;99.60
34644;DHT22;26931;43.498;-1.506;2022-12-15T14:21:16;16.00;99.70
34644;DHT22;26931;43.498;-1.506;2022-12-15T14:23:43;16.00;99.80
34644;DHT22;26931;43.498;-1.506;2022-12-15T14:26:10;16.10;99.80
34644;DHT22;26931;43.498;-1.506;2022-12-15T14:28:37;16.10;99.90
34644;DHT22;26931;43.498;-1.506;2022-12-15T14:31:24;16.00;99.90
34644;DHT22;26931;43.498;-1.506;2022-12-15T14:33:50;16.10;99.90
34644;DHT22;26931;43.498;-1.506;2022-12-15T14:36:18;16.10;99.90
34644;DHT22;26931;43.498;-1.506;2022-12-15T14:41:18;16.10;99.90
34644;DHT22;26931;43.498;-1.506;2022-12-15T14:43:45;16.00;99.80
34644;DHT22;26931;43.498;-1.506;2022-12-15T14:46:23;16.20;99.80
34644;DHT22;26931;43.498;-1.506;2022-12-15T14:48:59;16.00;99.70
34644;DHT22;26931;43.498;-1.506;2022-12-15T14:51:27;16.10;99.70
34644;DHT22;26931;43.498;-1.506;2022-12-15T14:53:54;16.10;99.60
34644;DHT22;26931;43.498;-1.506;2022-12-15T14:58:46;16.00;99.50
34644;DHT22;26931;43.498;-1.506;2022-12-15T15:01:22;16.00;99.50
34644;DHT22;26931;43.498;-1.506;2022-12-15T15:03:59;16.00;99.50
34644;DHT22;26931;43.498;-1.506;2022-12-15T15:06:29;16.00;99.50
34644;DHT22;26931;43.498;-1.506;2022-12-15T15:08:56;15.80;99.50
34644;DHT22;26931;43.498;-1.506;2022-12-15T15:11:28;15.90;99.60
34644;DHT22;26931;43.498;-1.506;2022-12-15T15:13:57;15.90;99.60
34644;DHT22;26931;43.498;-1.506;2022-12-15T15:16:23;15.90;99.60
34644;DHT22;26931;43.498;-1.506;2022-12-15T15:18:50;15.90;99.60
34644;DHT22;26931;43.498;-1.506;2022-12-15T15:21:23;15.90;99.90
34644;DHT22;26931;43.498;-1.506;2022-12-15T15:23:58;15.90;99.80
34644;DHT22;26931;43.498;-1.506;2022-12-15T15:26:24;15.90;99.80
34644;DHT22;26931;43.498;-1.506;2022-12-15T15:28:50;15.90;99.80
34644;DHT22;26931;43.498;-1.506;2022-12-15T15:31:29;15.90;99.90
34644;DHT22;26931;43.498;-1.506;2022-12-15T15:33:56;15.90;99.90
34644;DHT22;26931;43.498;-1.506;2022-12-15T15:36:43;15.90;99.90
34644;DHT22;26931;43.498;-1.506;2022-12-15T15:39:13;15.80;99.90
34644;DHT22;26931;43.498;-1.506;2022-12-15T15:41:44;15.90;99.90
34644;DHT22;26931;43.498;-1.506;2022-12-15T15:44:11;15.80;99.80
34644;DHT22;26931;43.498;-1.506;2022-12-15T15:46:37;15.80;99.80
34644;DHT22;26931;43.498;-1.506;2022-12-15T15:49:05;15.80;99.80
34644;DHT22;26931;43.498;-1.506;2022-12-15T15:51:32;15.90;99.80
34644;DHT22;26931;43.498;-1.506;2022-12-15T15:54:02;15.80;99.90
34644;DHT22;26931;43.498;-1.506;2022-12-15T15:56:29;15.80;99.90
34644;DHT22;26931;43.498;-1.506;2022-12-15T15:58:55;15.80;99.90
34644;DHT22;26931;43.498;-1.506;2022-12-15T16:01:21;15.80;99.90
34644;DHT22;26931;43.498;-1.506;2022-12-15T16:03:47;15.70;99.90
34644;DHT22;26931;43.498;-1.506;2022-12-15T16:06:17;15.80;99.90
34644;DHT22;26931;43.498;-1.506;2022-12-15T16:08:43;16.00;99.90
34644;DHT22;26931;43.498;-1.506;2022-12-15T16:11:10;15.70;99.90
34644;DHT22;26931;43.498;-1.506;2022-12-15T16:13:38;15.70;99.90
34644;DHT22;26931;43.498;-1.506;2022-12-15T16:16:04;15.70;99.90
34644;DHT22;26931;43.498;-1.506;2022-12-15T16:18:30;15.70;99.90
34644;DHT22;26931;43.498;-1.506;2022-12-15T16:20:56;15.70;99.90
34644;DHT22;26931;43.498;-1.506;2022-12-15T16:23:24;15.70;99.90
34644;DHT22;26931;43.498;-1.506;2022-12-15T16:25:54;15.60;99.90
34644;DHT22;26931;43.498;-1.506;2022-12-15T16:28:22;15.60;99.90
34644;DHT22;26931;43.498;-1.506;2022-12-15T16:30:48;15.60;99.90
34644;DHT22;26931;43.498;-1.506;2022-12-15T16:33:14;15.60;99.90
34644;DHT22;26931;43.498;-1.506;2022-12-15T16:35:40;15.60;99.90
34644;DHT22;26931;43.498;-1.506;2022-12-15T16:38:20;15.50;99.90
34644;DHT22;26931;43.498;-1.506;2022-12-15T16:40:47;15.50;99.90
34644;DHT22;26931;43.498;-1.506;2022-12-15T16:43:14;15.70;99.90
34644;DHT22;26931;43.498;-1.506;2022-12-15T16:45:41;15.40;99.90
34644;DHT22;26931;43.498;-1.506;2022-12-15T16:48:08;15.40;99.90
34644;DHT22;26931;43.498;-1.506;2022-12-15T16:50:35;15.50;99.90
34644;DHT22;26931;43.498;-1.506;2022-12-15T16:53:02;15.40;99.90
34644;DHT22;26931;43.498;-1.506;2022-12-15T16:55:29;15.40;99.90
34644;DHT22;26931;43.498;-1.506;2022-12-15T16:57:56;15.30;99.90
34644;DHT22;26931;43.498;-1.506;2022-12-15T17:00:23;15.40;99.90
34644;DHT22;26931;43.498;-1.506;2022-12-15T17:02:50;15.30;99.90
34644;DHT22;26931;43.498;-1.506;2022-12-15T17:05:16;15.30;99.90
34644;DHT22;26931;43.498;-1.506;2022-12-15T17:07:43;15.30;99.90
34644;DHT22;26931;43.498;-1.506;2022-12-15T17:10:14;15.30;99.90
34644;DHT22;26931;43.498;-1.506;2022-12-15T17:12:40;15.20;99.90
34644;DHT22;26931;43.498;-1.506;2022-12-15T17:15:23;15.20;99.90
34644;DHT22;26931;43.498;-1.506;2022-12-15T17:17:50;15.20;99.90
34644;DHT22;26931;43.498;-1.506;2022-12-15T17:20:21;15.20;99.90
34644;DHT22;26931;43.498;-1.506;2022-12-15T17:22:54;15.30;99.90
34644;DHT22;26931;43.498;-1.506;2022-12-15T17:25:21;15.10;99.90
34644;DHT22;26931;43.498;-1.506;2022-12-15T17:27:49;15.10;99.90
34644;DHT22;26931;43.498;-1.506;2022-12-15T17:30:15;15.10;99.90
34644;DHT22;26931;43.498;-1.506;2022-12-15T17:32:42;15.10;99.90